createdAt,value
2019-01-22T00:00:35.079Z,92.10
2019-01-22T00:03:04.357Z,92.20
2019-01-22T00:05:33.642Z,92.30
2019-01-22T00:08:03.113Z,92.40
2019-01-22T00:10:32.643Z,92.20
2019-01-22T00:13:01.947Z,92.50
2019-01-22T00:15:31.239Z,92.10
2019-01-22T00:18:00.531Z,92.20
2019-01-22T00:20:29.812Z,92.40
2019-01-22T00:23:02.909Z,92.10
2019-01-22T00:25:30.339Z,91.70
2019-01-22T00:28:00.365Z,91.90
2019-01-22T00:30:29.669Z,91.50
2019-01-22T00:32:59.033Z,91.70
2019-01-22T00:35:28.622Z,92.20
2019-01-22T00:37:57.915Z,91.90
2019-01-22T00:40:27.477Z,91.80
2019-01-22T00:42:57.041Z,92.20
2019-01-22T00:45:26.646Z,92.20
2019-01-22T00:47:55.969Z,92.20
2019-01-22T00:50:25.655Z,92.40
2019-01-22T00:52:54.946Z,92.40
2019-01-22T00:55:24.243Z,92.20
2019-01-22T00:57:53.866Z,91.80
2019-01-22T01:00:31.650Z,92.10
2019-01-22T01:03:01.104Z,91.80
2019-01-22T01:05:31.010Z,92.20
2019-01-22T01:08:00.799Z,92.40
2019-01-22T01:10:30.166Z,92.10
2019-01-22T01:13:00.521Z,92.20
2019-01-22T01:15:30.229Z,92.10
2019-01-22T01:17:59.885Z,92.10
2019-01-22T01:20:29.181Z,92.10
2019-01-22T01:22:58.461Z,92.00
2019-01-22T01:25:28.057Z,91.80
2019-01-22T01:27:57.337Z,92.20
2019-01-22T01:30:26.712Z,92.00
2019-01-22T01:32:56.994Z,92.20
2019-01-22T01:35:26.325Z,92.20
2019-01-22T01:37:55.653Z,92.00
2019-01-22T01:40:25.137Z,92.00
2019-01-22T01:42:55.422Z,92.30
2019-01-22T01:45:25.322Z,92.00
2019-01-22T01:47:54.626Z,92.20
2019-01-22T01:50:23.913Z,92.00
2019-01-22T01:52:53.530Z,92.00
2019-01-22T01:55:22.811Z,91.90
2019-01-22T01:57:52.448Z,92.10
2019-01-22T02:00:22.174Z,92.30
2019-01-22T02:02:51.461Z,92.10
2019-01-22T02:05:21.071Z,92.20
2019-01-22T02:07:50.363Z,92.20
2019-01-22T02:10:21.486Z,92.20
2019-01-22T02:12:54.370Z,91.90
2019-01-22T02:15:32.421Z,92.10
2019-01-22T02:18:31.943Z,92.20
2019-01-22T02:21:10.218Z,92.30
2019-01-22T02:23:45.261Z,92.30
2019-01-22T02:26:23.253Z,92.30
2019-01-22T02:29:01.604Z,92.20
2019-01-22T02:31:45.753Z,92.80
2019-01-22T02:34:23.804Z,92.70
2019-01-22T02:37:05.515Z,92.60
2019-01-22T02:39:49.736Z,92.70
2019-01-22T02:42:22.433Z,92.70
2019-01-22T02:45:19.086Z,92.90
2019-01-22T02:47:57.205Z,93.10
2019-01-22T02:50:38.721Z,93.20
2019-01-22T02:53:13.835Z,92.90
2019-01-22T02:55:48.838Z,93.00
2019-01-22T02:58:41.090Z,93.30
2019-01-22T03:01:21.693Z,93.20
2019-01-22T03:04:00.168Z,92.90
2019-01-22T03:06:38.717Z,92.90
2019-01-22T03:09:13.743Z,93.10
2019-01-22T03:11:58.100Z,93.40
2019-01-22T03:14:36.501Z,93.30
2019-01-22T03:17:36.155Z,93.30
2019-01-22T03:20:25.982Z,93.20
2019-01-22T03:23:19.132Z,93.20
2019-01-22T03:26:00.290Z,93.40
2019-01-22T03:28:45.101Z,92.90
2019-01-22T03:31:23.556Z,92.80
2019-01-22T03:34:11.026Z,93.30
2019-01-22T03:36:58.429Z,93.10
2019-01-22T03:39:39.854Z,92.80
2019-01-22T03:42:24.200Z,93.10
2019-01-22T03:45:19.549Z,93.20
2019-01-22T03:48:00.865Z,93.00
2019-01-22T03:50:33.492Z,92.70
2019-01-22T03:53:33.087Z,92.90
2019-01-22T03:56:35.869Z,93.40
2019-01-22T03:59:05.146Z,93.40
2019-01-22T04:01:34.504Z,93.40
2019-01-22T04:04:04.489Z,93.70
2019-01-22T04:06:33.838Z,93.50
2019-01-22T04:09:06.230Z,93.30
2019-01-22T04:11:35.758Z,93.70
2019-01-22T04:14:05.892Z,93.70
2019-01-22T04:16:35.703Z,93.50
2019-01-22T04:19:05.412Z,93.90
2019-01-22T04:21:35.332Z,94.10
2019-01-22T04:24:19.680Z,94.30
2019-01-22T04:27:16.833Z,94.00
2019-01-22T04:29:49.234Z,93.50
2019-01-22T04:32:21.710Z,93.70
2019-01-22T04:35:02.808Z,93.00
2019-01-22T04:37:37.894Z,93.10
2019-01-22T04:40:30.030Z,93.20
2019-01-22T04:43:08.475Z,92.90
2019-01-22T04:45:49.198Z,92.70
2019-01-22T04:48:36.970Z,93.10
2019-01-22T04:51:18.224Z,92.80
2019-01-22T04:54:09.394Z,93.40
2019-01-22T04:56:39.330Z,93.20
2019-01-22T04:59:20.862Z,93.40
2019-01-22T05:01:56.713Z,93.20
2019-01-22T05:04:31.838Z,93.50
2019-01-22T05:07:21.918Z,93.70
2019-01-22T05:10:00.285Z,93.70
2019-01-22T05:12:44.849Z,93.30
2019-01-22T05:15:43.317Z,93.40
2019-01-22T05:18:36.962Z,93.50
2019-01-22T05:21:29.023Z,93.30
2019-01-22T05:24:17.411Z,93.70
2019-01-22T05:27:04.778Z,93.20
2019-01-22T05:29:59.456Z,93.70
2019-01-22T05:32:53.027Z,93.50
2019-01-22T05:35:31.331Z,93.20
2019-01-22T05:38:09.943Z,93.10
2019-01-22T05:41:01.928Z,93.10
2019-01-22T05:43:51.839Z,93.00
2019-01-22T05:46:43.940Z,93.00
2019-01-22T05:49:19.663Z,92.90
2019-01-22T05:52:16.430Z,92.80
2019-01-22T05:54:48.785Z,92.60
2019-01-22T05:57:19.222Z,92.70
2019-01-22T06:00:22.403Z,92.80
2019-01-22T06:02:55.187Z,92.80
2019-01-22T06:05:53.566Z,93.00
2019-01-22T06:08:46.838Z,93.20
2019-01-22T06:11:49.342Z,93.40
2019-01-22T06:14:30.729Z,93.20
2019-01-22T06:17:03.098Z,93.30
2019-01-22T06:19:53.424Z,93.40
2019-01-22T06:22:49.939Z,93.50
2019-01-22T06:25:24.903Z,93.40
2019-01-22T06:27:57.270Z,93.20
2019-01-22T06:30:32.959Z,93.20
2019-01-22T06:33:11.463Z,93.30
2019-01-22T06:35:46.725Z,93.10
2019-01-22T06:38:33.931Z,93.20
2019-01-22T06:41:36.818Z,93.40
2019-01-22T06:45:00.244Z,93.50
2019-01-22T06:47:52.463Z,93.30
2019-01-22T06:50:49.378Z,93.60
2019-01-22T06:53:33.745Z,93.70
2019-01-22T06:56:24.743Z,93.90
2019-01-22T06:59:15.044Z,93.90
2019-01-22T07:01:56.272Z,94.10
2019-01-22T07:04:34.440Z,94.10
2019-01-22T07:07:25.256Z,94.20
2019-01-22T07:10:13.097Z,94.10
2019-01-22T07:12:51.239Z,94.20
2019-01-22T07:15:28.893Z,93.70
2019-01-22T07:18:25.411Z,94.10
2019-01-22T07:21:09.767Z,94.40
2019-01-22T07:24:03.806Z,94.60
2019-01-22T07:26:51.265Z,94.50
2019-01-22T07:29:42.974Z,94.10
2019-01-22T07:32:21.266Z,94.40
2019-01-22T07:34:59.926Z,94.20
2019-01-22T07:37:38.162Z,94.40
2019-01-22T07:40:31.704Z,94.60
2019-01-22T07:43:24.641Z,94.30
2019-01-22T07:46:15.158Z,94.10
2019-01-22T07:48:53.297Z,93.80
2019-01-22T07:51:28.262Z,94.00
2019-01-22T07:54:06.189Z,94.00
2019-01-22T07:56:44.516Z,94.10
2019-01-22T07:59:19.762Z,94.00
2019-01-22T08:02:20.774Z,94.10
2019-01-22T08:05:09.735Z,94.20
2019-01-22T08:07:55.232Z,93.80
2019-01-22T08:10:45.381Z,93.50
2019-01-22T08:13:39.823Z,93.10
2019-01-22T08:16:30.407Z,92.80
2019-01-22T08:19:05.282Z,92.80
2019-01-22T08:21:53.847Z,92.10
2019-01-22T08:24:35.182Z,91.50
2019-01-22T08:27:13.582Z,91.40
2019-01-22T08:29:54.494Z,90.80
2019-01-22T08:32:52.863Z,90.00
2019-01-22T08:35:31.021Z,89.50
2019-01-22T08:38:06.196Z,89.10
2019-01-22T08:40:55.574Z,88.80
2019-01-22T08:43:39.830Z,89.00
2019-01-22T08:46:20.807Z,88.40
2019-01-22T08:49:02.340Z,89.30
2019-01-22T08:51:55.406Z,88.80
2019-01-22T08:54:36.922Z,88.70
2019-01-22T08:57:15.247Z,88.90
2019-01-22T08:59:53.461Z,88.80
2019-01-22T09:02:34.620Z,89.00
2019-01-22T09:05:21.363Z,89.00
2019-01-22T09:08:11.787Z,88.40
2019-01-22T09:11:05.376Z,88.40
2019-01-22T09:13:49.693Z,91.10
2019-01-22T09:16:30.538Z,83.90
2019-01-22T09:19:20.922Z,85.50
2019-01-22T09:22:11.389Z,86.00
2019-01-22T09:24:49.068Z,85.60
2019-01-22T09:27:21.439Z,85.70
2019-01-22T09:29:59.879Z,86.10
2019-01-22T09:32:38.474Z,86.10
2019-01-22T09:35:26.483Z,86.00
2019-01-22T09:37:56.403Z,85.90
2019-01-22T09:40:25.710Z,85.70
2019-01-22T09:42:56.111Z,86.00
2019-01-22T09:45:25.569Z,85.60
2019-01-22T09:47:54.850Z,85.40
2019-01-22T09:50:24.142Z,85.60
2019-01-22T09:52:53.430Z,85.50
2019-01-22T09:55:24.163Z,85.30
2019-01-22T09:57:53.441Z,85.30
2019-01-22T10:00:23.108Z,85.80
2019-01-22T10:02:52.407Z,85.60
2019-01-22T10:05:21.701Z,85.80
2019-01-22T10:07:51.085Z,85.30
2019-01-22T10:10:23.222Z,85.40
2019-01-22T10:12:52.784Z,84.00
2019-01-22T10:15:22.648Z,81.90
2019-01-22T10:17:53.004Z,82.90
2019-01-22T10:20:23.849Z,83.80
2019-01-22T10:22:53.309Z,82.50
2019-01-22T10:25:29.229Z,69.80
2019-01-22T10:27:53.924Z,74.00
2019-01-22T10:30:25.440Z,77.30
2019-01-22T10:32:54.734Z,79.80
2019-01-22T10:35:24.014Z,80.80
2019-01-22T10:37:53.314Z,82.30
2019-01-22T10:40:26.725Z,82.70
2019-01-22T10:42:56.329Z,83.70
2019-01-22T10:45:25.613Z,84.00
2019-01-22T10:47:55.067Z,83.90
2019-01-22T10:50:24.351Z,84.50
2019-01-22T10:52:53.643Z,84.80
2019-01-22T10:55:22.931Z,84.90
2019-01-22T10:57:52.222Z,85.10
2019-01-22T11:00:27.538Z,89.40
2019-01-22T11:02:56.958Z,80.30
2019-01-22T11:05:32.199Z,80.80
2019-01-22T11:08:01.541Z,80.00
2019-01-22T11:10:31.896Z,82.00
2019-01-22T11:13:01.190Z,83.60
2019-01-22T11:15:30.486Z,83.40
2019-01-22T11:17:59.778Z,84.00
2019-01-22T11:20:31.371Z,84.80
2019-01-22T11:23:00.910Z,82.80
2019-01-22T11:25:33.136Z,82.70
2019-01-22T11:28:02.432Z,83.30
2019-01-22T11:30:31.887Z,83.40
2019-01-22T11:33:01.177Z,83.70
2019-01-22T11:35:30.598Z,84.00
2019-01-22T11:37:59.892Z,84.20
2019-01-22T11:40:38.310Z,83.10
2019-01-22T11:43:07.610Z,83.40
2019-01-22T11:45:37.205Z,82.90
2019-01-22T11:48:07.637Z,83.30
2019-01-22T11:50:37.253Z,83.80
2019-01-22T11:53:06.542Z,83.80
2019-01-22T11:55:35.834Z,84.90
2019-01-22T11:58:05.456Z,84.00
2019-01-22T12:00:47.148Z,84.40
2019-01-22T12:03:16.758Z,84.10
2019-01-22T12:05:46.507Z,83.70
2019-01-22T12:08:15.875Z,83.60
2019-01-22T12:10:45.165Z,83.30
2019-01-22T12:13:14.510Z,83.40
2019-01-22T12:15:44.178Z,82.60
2019-01-22T12:18:13.788Z,82.70
2019-01-22T12:20:45.178Z,82.50
2019-01-22T12:23:14.486Z,82.90
2019-01-22T12:25:44.047Z,83.00
2019-01-22T12:28:13.336Z,82.60
2019-01-22T12:30:42.622Z,82.40
2019-01-22T12:33:11.922Z,82.10
2019-01-22T12:35:41.459Z,82.50
2019-01-22T12:38:10.745Z,81.60
2019-01-22T12:40:40.025Z,80.90
2019-01-22T12:43:09.318Z,80.90
2019-01-22T12:45:38.978Z,81.20
2019-01-22T12:48:08.593Z,82.00
2019-01-22T12:50:38.323Z,82.40
2019-01-22T12:53:08.203Z,82.40
2019-01-22T12:55:37.539Z,82.40
2019-01-22T12:58:06.836Z,82.70
2019-01-22T13:00:37.446Z,82.60
2019-01-22T13:03:07.337Z,82.60
2019-01-22T13:05:48.455Z,83.10
2019-01-22T13:08:17.759Z,83.10
2019-01-22T13:10:47.098Z,90.50
2019-01-22T13:13:16.560Z,73.80
2019-01-22T13:15:46.134Z,75.90
2019-01-22T13:18:15.417Z,78.30
2019-01-22T13:20:44.883Z,80.80
2019-01-22T13:23:14.165Z,81.80
2019-01-22T13:25:43.467Z,82.90
2019-01-22T13:28:13.067Z,83.50
2019-01-22T13:30:42.363Z,83.90
2019-01-22T13:33:11.963Z,84.50
2019-01-22T13:35:41.267Z,84.70
2019-01-22T13:38:11.892Z,84.70
2019-01-22T13:40:41.174Z,86.60
2019-01-22T13:43:10.467Z,82.80
2019-01-22T13:45:40.203Z,83.60
2019-01-22T13:48:12.963Z,84.30
2019-01-22T13:50:42.260Z,85.00
2019-01-22T13:53:11.546Z,84.80
2019-01-22T13:55:40.837Z,85.60
2019-01-22T13:58:10.121Z,85.40
2019-01-22T14:00:39.421Z,85.90
2019-01-22T14:03:09.366Z,86.30
2019-01-22T14:05:38.657Z,86.50
2019-01-22T14:08:07.943Z,86.90
2019-01-22T14:10:37.247Z,86.70
2019-01-22T14:13:06.527Z,86.90
2019-01-22T14:15:40.623Z,86.80
2019-01-22T14:18:11.051Z,87.00
2019-01-22T14:20:40.659Z,87.50
2019-01-22T14:23:10.272Z,87.60
2019-01-22T14:25:39.581Z,87.70
2019-01-22T14:28:08.966Z,87.90
2019-01-22T14:30:40.264Z,88.20
2019-01-22T14:33:09.923Z,88.00
2019-01-22T14:35:39.286Z,87.90
2019-01-22T14:38:08.641Z,88.10
2019-01-22T14:40:37.960Z,88.10
2019-01-22T14:43:07.303Z,87.90
2019-01-22T14:45:36.598Z,88.60
2019-01-22T14:48:06.153Z,88.30
2019-01-22T14:50:35.447Z,88.40
2019-01-22T14:53:05.052Z,88.70
2019-01-22T14:55:34.661Z,88.90
2019-01-22T14:58:04.481Z,88.70
2019-01-22T15:00:33.778Z,88.90
2019-01-22T15:03:03.478Z,88.70
2019-01-22T15:05:33.081Z,88.30
2019-01-22T15:08:02.695Z,88.40
2019-01-22T15:10:32.614Z,88.50
2019-01-22T15:13:01.965Z,88.30
2019-01-22T15:15:31.527Z,88.30
2019-01-22T15:18:00.804Z,88.70
2019-01-22T15:20:30.117Z,89.30
2019-01-22T15:22:59.842Z,89.30
2019-01-22T15:25:29.129Z,89.40
2019-01-22T15:27:58.739Z,89.70
2019-01-22T15:30:32.880Z,89.50
2019-01-22T15:33:02.981Z,90.10
2019-01-22T15:35:32.270Z,89.40
2019-01-22T15:38:01.575Z,90.00
2019-01-22T15:40:31.635Z,89.80
2019-01-22T15:43:00.923Z,89.50
2019-01-22T15:45:30.307Z,89.10
2019-01-22T15:47:59.591Z,89.80
2019-01-22T15:50:28.886Z,90.40
2019-01-22T15:52:58.184Z,90.40
2019-01-22T15:55:30.031Z,90.20
2019-01-22T15:57:59.307Z,89.60
2019-01-22T16:00:29.340Z,90.30
2019-01-22T16:02:59.082Z,90.30
2019-01-22T16:05:28.798Z,89.80
2019-01-22T16:07:58.089Z,89.40
2019-01-22T16:10:28.471Z,89.30
2019-01-22T16:12:57.764Z,89.90
2019-01-22T16:15:27.050Z,89.20
2019-01-22T16:17:56.338Z,88.90
2019-01-22T16:20:27.066Z,89.10
2019-01-22T16:22:56.514Z,89.00
2019-01-22T16:25:26.695Z,89.40
2019-01-22T16:27:57.353Z,90.30
2019-01-22T16:30:27.342Z,89.90
2019-01-22T16:32:56.646Z,89.90
2019-01-22T16:35:26.451Z,89.50
2019-01-22T16:37:55.808Z,89.80
2019-01-22T16:40:25.336Z,90.40
2019-01-22T16:42:54.619Z,90.20
2019-01-22T16:45:32.114Z,90.40
2019-01-22T16:48:01.404Z,90.40
2019-01-22T16:50:33.004Z,90.10
2019-01-22T16:53:04.435Z,90.50
2019-01-22T16:55:36.785Z,90.50
2019-01-22T16:58:06.229Z,90.50
2019-01-22T17:00:37.378Z,90.70
2019-01-22T17:03:08.498Z,90.60
2019-01-22T17:05:38.638Z,90.60
2019-01-22T17:08:08.008Z,91.10
2019-01-22T17:10:37.709Z,90.90
2019-01-22T17:13:07.384Z,90.60
2019-01-22T17:15:36.664Z,90.70
2019-01-22T17:18:06.310Z,90.60
2019-01-22T17:20:37.448Z,90.70
2019-01-22T17:23:07.123Z,90.70
2019-01-22T17:25:36.414Z,91.20
2019-01-22T17:28:05.855Z,91.10
2019-01-22T17:30:35.141Z,91.20
2019-01-22T17:33:19.413Z,91.20
2019-01-22T17:35:49.302Z,91.40
2019-01-22T17:38:18.722Z,90.90
2019-01-22T17:40:48.022Z,91.10
2019-01-22T17:43:17.308Z,91.10
2019-01-22T17:45:46.907Z,91.00
2019-01-22T17:48:16.202Z,91.40
2019-01-22T17:50:45.506Z,91.20
2019-01-22T17:53:15.114Z,91.60
2019-01-22T17:55:44.397Z,91.50
2019-01-22T17:58:14.023Z,91.50
2019-01-22T18:00:43.631Z,91.50
2019-01-22T18:03:12.934Z,91.50
2019-01-22T18:05:42.542Z,91.50
2019-01-22T18:08:11.834Z,91.70
2019-01-22T18:10:41.504Z,91.60
2019-01-22T18:13:10.814Z,91.80
2019-01-22T18:15:40.354Z,91.50
2019-01-22T18:18:09.651Z,91.50
2019-01-22T18:20:38.965Z,91.70
2019-01-22T18:23:08.251Z,92.00
2019-01-22T18:25:37.528Z,91.70
2019-01-22T18:28:06.896Z,91.70
2019-01-22T18:30:36.181Z,91.80
2019-01-22T18:33:05.530Z,92.00
2019-01-22T18:35:38.104Z,92.30
2019-01-22T18:38:07.957Z,91.60
2019-01-22T18:40:37.235Z,91.80
2019-01-22T18:43:06.569Z,91.90
2019-01-22T18:45:36.959Z,92.10
2019-01-22T18:48:06.610Z,91.90
2019-01-22T18:50:36.408Z,91.90
2019-01-22T18:53:06.320Z,92.20
2019-01-22T18:55:37.674Z,92.40
2019-01-22T18:58:06.995Z,92.70
2019-01-22T19:00:36.579Z,92.70
2019-01-22T19:03:06.285Z,93.00
2019-01-22T19:05:35.946Z,92.80
2019-01-22T19:08:05.304Z,92.40
2019-01-22T19:10:34.927Z,92.70
2019-01-22T19:13:04.280Z,92.70
2019-01-22T19:15:34.018Z,92.90
2019-01-22T19:18:03.370Z,92.50
2019-01-22T19:20:32.675Z,92.60
2019-01-22T19:23:01.967Z,92.40
2019-01-22T19:25:31.297Z,92.20
2019-01-22T19:28:00.946Z,92.40
2019-01-22T19:30:32.019Z,92.50
2019-01-22T19:33:01.591Z,92.20
2019-01-22T19:35:30.869Z,92.30
2019-01-22T19:38:00.164Z,92.20
2019-01-22T19:40:29.445Z,92.50
2019-01-22T19:42:58.967Z,92.50
2019-01-22T19:45:30.825Z,93.10
2019-01-22T19:48:01.130Z,93.30
2019-01-22T19:50:31.413Z,93.20
2019-01-22T19:53:00.739Z,93.50
2019-01-22T19:55:30.073Z,93.70
2019-01-22T19:57:59.362Z,93.80
2019-01-22T20:00:34.344Z,93.80
2019-01-22T20:03:05.339Z,94.20
2019-01-22T20:05:35.806Z,94.10
2019-01-22T20:08:06.078Z,94.30
2019-01-22T20:10:35.447Z,94.50
2019-01-22T20:13:05.172Z,94.50
2019-01-22T20:15:34.455Z,94.90
2019-01-22T20:18:04.114Z,95.10
2019-01-22T20:20:33.488Z,95.60
2019-01-22T20:23:02.857Z,96.00
2019-01-22T20:25:32.142Z,95.90
2019-01-22T20:28:01.422Z,96.10
2019-01-22T20:30:32.950Z,96.00
2019-01-22T20:33:02.519Z,96.20
2019-01-22T20:35:31.878Z,96.60
2019-01-22T20:38:01.931Z,96.30
2019-01-22T20:40:31.205Z,96.30
2019-01-22T20:43:00.501Z,96.50
2019-01-22T20:45:30.306Z,96.70
2019-01-22T20:47:59.899Z,96.90
2019-01-22T20:50:29.186Z,96.50
2019-01-22T20:52:58.497Z,96.70
2019-01-22T20:55:27.794Z,97.20
2019-01-22T20:57:57.097Z,97.60
2019-01-22T21:00:26.447Z,97.30
2019-01-22T21:02:55.734Z,97.40
2019-01-22T21:05:30.083Z,97.00
2019-01-22T21:07:59.802Z,97.00
2019-01-22T21:10:32.341Z,96.90
2019-01-22T21:13:01.626Z,97.00
2019-01-22T21:15:31.072Z,97.50
2019-01-22T21:18:00.381Z,97.00
2019-01-22T21:20:29.673Z,97.40
2019-01-22T21:22:58.974Z,97.20
2019-01-22T21:25:28.586Z,99.90
2019-01-22T21:28:01.852Z,87.40
2019-01-22T21:30:36.354Z,89.30
2019-01-22T21:33:06.590Z,91.70
2019-01-22T21:35:35.874Z,93.70
2019-01-22T21:38:05.634Z,95.00
2019-01-22T21:40:35.244Z,96.10
2019-01-22T21:43:04.939Z,96.70
2019-01-22T21:45:34.587Z,96.90
2019-01-22T21:48:05.091Z,97.10
2019-01-22T21:50:34.389Z,97.70
2019-01-22T21:53:04.435Z,98.20
2019-01-22T21:55:34.024Z,98.50
2019-01-22T21:58:08.424Z,98.50
2019-01-22T22:00:34.460Z,98.70
2019-01-22T22:03:03.765Z,98.90
2019-01-22T22:05:33.120Z,99.10
2019-01-22T22:08:02.610Z,99.10
2019-01-22T22:10:31.965Z,98.70
2019-01-22T22:13:01.283Z,98.70
2019-01-22T22:15:30.626Z,98.80
2019-01-22T22:18:00.191Z,99.10
2019-01-22T22:20:29.802Z,99.30
2019-01-22T22:22:59.396Z,99.40
2019-01-22T22:25:29.120Z,99.00
2019-01-22T22:27:58.414Z,99.00
2019-01-22T22:30:30.287Z,98.80
2019-01-22T22:32:59.912Z,99.00
2019-01-22T22:35:29.253Z,99.00
2019-01-22T22:37:59.313Z,98.90
2019-01-22T22:40:29.234Z,99.10
2019-01-22T22:42:58.844Z,99.00
2019-01-22T22:45:28.139Z,98.70
2019-01-22T22:47:57.495Z,98.70
2019-01-22T22:50:29.547Z,98.90
2019-01-22T22:52:59.205Z,99.00
2019-01-22T22:55:28.866Z,99.00
2019-01-22T22:57:58.154Z,98.80
2019-01-22T23:00:46.355Z,98.60
2019-01-22T23:03:17.330Z,98.80
2019-01-22T23:05:50.629Z,98.70
2019-01-22T23:08:19.906Z,98.90
2019-01-22T23:10:49.211Z,98.80
2019-01-22T23:13:18.726Z,98.80
2019-01-22T23:15:48.311Z,98.80
2019-01-22T23:18:17.592Z,99.00
2019-01-22T23:20:46.889Z,98.90
2019-01-22T23:23:16.165Z,99.10
2019-01-22T23:25:45.453Z,99.10
2019-01-22T23:28:14.734Z,99.20
2019-01-22T23:30:44.318Z,98.90
2019-01-22T23:33:13.609Z,98.70
2019-01-22T23:35:42.900Z,98.90
2019-01-22T23:38:12.521Z,99.30
2019-01-22T23:40:41.809Z,99.00
2019-01-22T23:43:11.091Z,99.60
2019-01-22T23:45:40.385Z,99.40
2019-01-22T23:48:09.675Z,99.00
2019-01-22T23:50:39.042Z,98.70
2019-01-22T23:53:08.342Z,98.80
2019-01-22T23:55:37.931Z,99.00
2019-01-22T23:58:07.216Z,98.80
